sensor_id;sensor_type;location;lat;lon;timestamp;temperature;humidity
39033;DHT22;24794;51.982;5.878;2022-12-18T00:00:44;-0.60;99.90
39033;DHT22;24794;51.982;5.878;2022-12-18T00:01:47;-0.60;99.90
39033;DHT22;24794;51.982;5.878;2022-12-18T00:02:48;-0.60;99.90
39033;DHT22;24794;51.982;5.878;2022-12-18T00:03:50;-0.60;99.90
39033;DHT22;24794;51.982;5.878;2022-12-18T00:04:51;-0.60;99.90
39033;DHT22;24794;51.982;5.878;2022-12-18T00:05:52;-0.60;99.90
39033;DHT22;24794;51.982;5.878;2022-12-18T00:06:53;-0.60;99.90
39033;DHT22;24794;51.982;5.878;2022-12-18T00:07:54;-0.60;99.90
39033;DHT22;24794;51.982;5.878;2022-12-18T00:08:55;-0.60;99.90
39033;DHT22;24794;51.982;5.878;2022-12-18T00:09:56;-0.60;99.90
39033;DHT22;24794;51.982;5.878;2022-12-18T00:11:06;-0.60;99.90
39033;DHT22;24794;51.982;5.878;2022-12-18T00:12:07;-0.60;99.90
39033;DHT22;24794;51.982;5.878;2022-12-18T00:13:07;-0.60;99.90
39033;DHT22;24794;51.982;5.878;2022-12-18T00:14:10;-0.60;99.90
39033;DHT22;24794;51.982;5.878;2022-12-18T00:15:11;-0.60;99.90
39033;DHT22;24794;51.982;5.878;2022-12-18T00:16:14;-0.60;99.90
39033;DHT22;24794;51.982;5.878;2022-12-18T00:17:15;-0.60;99.90
39033;DHT22;24794;51.982;5.878;2022-12-18T00:18:16;-0.60;99.90
39033;DHT22;24794;51.982;5.878;2022-12-18T00:19:17;-0.60;99.90
39033;DHT22;24794;51.982;5.878;2022-12-18T00:20:17;-0.60;99.90
39033;DHT22;24794;51.982;5.878;2022-12-18T00:21:24;-0.60;99.90
39033;DHT22;24794;51.982;5.878;2022-12-18T00:22:25;-0.60;99.90
39033;DHT22;24794;51.982;5.878;2022-12-18T00:23:25;-0.60;99.90
39033;DHT22;24794;51.982;5.878;2022-12-18T00:24:26;-0.60;99.90
39033;DHT22;24794;51.982;5.878;2022-12-18T00:25:27;-0.60;99.90
39033;DHT22;24794;51.982;5.878;2022-12-18T00:26:33;-0.60;99.90
39033;DHT22;24794;51.982;5.878;2022-12-18T00:27:34;-0.60;99.90
39033;DHT22;24794;51.982;5.878;2022-12-18T00:28:35;-0.60;99.90
39033;DHT22;24794;51.982;5.878;2022-12-18T00:29:35;-0.60;99.90
39033;DHT22;24794;51.982;5.878;2022-12-18T00:30:36;-0.70;99.90
39033;DHT22;24794;51.982;5.878;2022-12-18T00:31:37;-0.70;99.90
39033;DHT22;24794;51.982;5.878;2022-12-18T00:32:38;-0.70;99.90
39033;DHT22;24794;51.982;5.878;2022-12-18T00:33:39;-0.70;99.90
39033;DHT22;24794;51.982;5.878;2022-12-18T00:34:39;-0.60;99.90
39033;DHT22;24794;51.982;5.878;2022-12-18T00:35:40;-0.70;99.90
39033;DHT22;24794;51.982;5.878;2022-12-18T00:36:41;-0.70;99.90
39033;DHT22;24794;51.982;5.878;2022-12-18T00:37:41;-0.60;99.90
39033;DHT22;24794;51.982;5.878;2022-12-18T00:38:42;-0.70;99.90
39033;DHT22;24794;51.982;5.878;2022-12-18T00:39:43;-0.70;99.90
39033;DHT22;24794;51.982;5.878;2022-12-18T00:40:44;-0.70;99.90
39033;DHT22;24794;51.982;5.878;2022-12-18T00:41:44;-0.70;99.90
39033;DHT22;24794;51.982;5.878;2022-12-18T00:43:03;-0.70;99.90
39033;DHT22;24794;51.982;5.878;2022-12-18T00:44:06;-0.80;99.90
39033;DHT22;24794;51.982;5.878;2022-12-18T00:45:07;-0.80;99.90
39033;DHT22;24794;51.982;5.878;2022-12-18T00:46:08;-0.80;99.90
39033;DHT22;24794;51.982;5.878;2022-12-18T00:47:08;-0.80;99.90
39033;DHT22;24794;51.982;5.878;2022-12-18T00:48:09;-0.80;99.90
39033;DHT22;24794;51.982;5.878;2022-12-18T00:49:12;-0.80;99.90
39033;DHT22;24794;51.982;5.878;2022-12-18T00:50:13;-0.80;99.90
39033;DHT22;24794;51.982;5.878;2022-12-18T00:51:13;-0.80;99.90
39033;DHT22;24794;51.982;5.878;2022-12-18T00:52:14;-0.90;99.90
39033;DHT22;24794;51.982;5.878;2022-12-18T00:53:14;-0.90;99.90
39033;DHT22;24794;51.982;5.878;2022-12-18T00:54:16;-0.90;99.90
39033;DHT22;24794;51.982;5.878;2022-12-18T00:55:17;-0.90;99.90
39033;DHT22;24794;51.982;5.878;2022-12-18T00:56:22;-0.90;99.90
39033;DHT22;24794;51.982;5.878;2022-12-18T00:57:22;-0.90;99.90
39033;DHT22;24794;51.982;5.878;2022-12-18T00:58:23;-0.90;99.90
39033;DHT22;24794;51.982;5.878;2022-12-18T00:59:23;-1.00;99.90
39033;DHT22;24794;51.982;5.878;2022-12-18T01:00:24;-1.00;99.90
39033;DHT22;24794;51.982;5.878;2022-12-18T01:01:25;-1.00;99.90
39033;DHT22;24794;51.982;5.878;2022-12-18T01:02:25;-1.00;99.90
39033;DHT22;24794;51.982;5.878;2022-12-18T01:03:26;-1.00;99.90
39033;DHT22;24794;51.982;5.878;2022-12-18T01:04:26;-1.00;99.90
39033;DHT22;24794;51.982;5.878;2022-12-18T01:05:28;-1.10;99.90
39033;DHT22;24794;51.982;5.878;2022-12-18T01:06:28;-1.10;99.90
39033;DHT22;24794;51.982;5.878;2022-12-18T01:07:29;-1.10;99.90
39033;DHT22;24794;51.982;5.878;2022-12-18T01:08:30;-1.10;99.90
39033;DHT22;24794;51.982;5.878;2022-12-18T01:09:30;-1.10;99.90
39033;DHT22;24794;51.982;5.878;2022-12-18T01:10:31;-1.00;99.90
39033;DHT22;24794;51.982;5.878;2022-12-18T01:11:31;-1.00;99.90
39033;DHT22;24794;51.982;5.878;2022-12-18T01:12:32;-1.00;99.90
39033;DHT22;24794;51.982;5.878;2022-12-18T01:13:33;-1.00;99.90
39033;DHT22;24794;51.982;5.878;2022-12-18T01:14:34;-1.10;99.90
39033;DHT22;24794;51.982;5.878;2022-12-18T01:15:34;-1.00;99.90
39033;DHT22;24794;51.982;5.878;2022-12-18T01:16:35;-1.10;99.90
39033;DHT22;24794;51.982;5.878;2022-12-18T01:17:36;-1.00;99.90
39033;DHT22;24794;51.982;5.878;2022-12-18T01:18:36;-1.10;99.90
39033;DHT22;24794;51.982;5.878;2022-12-18T01:19:37;-1.10;99.90
39033;DHT22;24794;51.982;5.878;2022-12-18T01:20:38;-1.00;99.90
39033;DHT22;24794;51.982;5.878;2022-12-18T01:21:38;-1.00;99.90
39033;DHT22;24794;51.982;5.878;2022-12-18T01:22:39;-1.00;99.90
39033;DHT22;24794;51.982;5.878;2022-12-18T01:23:39;-1.10;99.90
39033;DHT22;24794;51.982;5.878;2022-12-18T01:24:40;-1.00;99.90
39033;DHT22;24794;51.982;5.878;2022-12-18T01:25:41;-1.00;99.90
39033;DHT22;24794;51.982;5.878;2022-12-18T01:26:41;-1.00;99.90
39033;DHT22;24794;51.982;5.878;2022-12-18T01:27:42;-1.00;99.90
39033;DHT22;24794;51.982;5.878;2022-12-18T01:28:43;-1.00;99.90
39033;DHT22;24794;51.982;5.878;2022-12-18T01:29:44;-1.00;99.90
39033;DHT22;24794;51.982;5.878;2022-12-18T01:30:44;-1.00;99.90
39033;DHT22;24794;51.982;5.878;2022-12-18T01:31:45;-1.00;99.90
39033;DHT22;24794;51.982;5.878;2022-12-18T01:32:45;-1.00;99.90
39033;DHT22;24794;51.982;5.878;2022-12-18T01:33:50;-1.00;99.90
39033;DHT22;24794;51.982;5.878;2022-12-18T01:34:51;-1.00;99.90
39033;DHT22;24794;51.982;5.878;2022-12-18T01:35:52;-1.00;99.90
39033;DHT22;24794;51.982;5.878;2022-12-18T01:36:52;-1.00;99.90
39033;DHT22;24794;51.982;5.878;2022-12-18T01:37:56;-1.00;99.90
39033;DHT22;24794;51.982;5.878;2022-12-18T01:38:59;-1.00;99.90
39033;DHT22;24794;51.982;5.878;2022-12-18T01:40:00;-1.00;99.90
39033;DHT22;24794;51.982;5.878;2022-12-18T01:41:01;-1.00;99.90
39033;DHT22;24794;51.982;5.878;2022-12-18T01:42:11;-1.00;99.90
39033;DHT22;24794;51.982;5.878;2022-12-18T01:43:12;-1.00;99.90
39033;DHT22;24794;51.982;5.878;2022-12-18T01:45:50;-1.00;99.90
39033;DHT22;24794;51.982;5.878;2022-12-18T01:46:50;-1.00;99.90
39033;DHT22;24794;51.982;5.878;2022-12-18T01:47:54;-1.00;99.90
39033;DHT22;24794;51.982;5.878;2022-12-18T01:48:57;-1.00;99.90
39033;DHT22;24794;51.982;5.878;2022-12-18T01:50:04;-1.00;99.90
39033;DHT22;24794;51.982;5.878;2022-12-18T01:51:08;-1.00;99.90
39033;DHT22;24794;51.982;5.878;2022-12-18T01:52:10;-1.00;99.90
39033;DHT22;24794;51.982;5.878;2022-12-18T01:54:15;-1.10;99.90
39033;DHT22;24794;51.982;5.878;2022-12-18T01:55:19;-1.10;99.90
39033;DHT22;24794;51.982;5.878;2022-12-18T01:56:21;-1.10;99.90
39033;DHT22;24794;51.982;5.878;2022-12-18T01:57:23;-1.10;99.90
39033;DHT22;24794;51.982;5.878;2022-12-18T01:59:50;-1.10;99.90
39033;DHT22;24794;51.982;5.878;2022-12-18T02:00:54;-1.00;99.90
39033;DHT22;24794;51.982;5.878;2022-12-18T02:01:55;-1.00;99.90
39033;DHT22;24794;51.982;5.878;2022-12-18T02:02:56;-1.00;99.90
39033;DHT22;24794;51.982;5.878;2022-12-18T02:04:23;-1.00;99.90
39033;DHT22;24794;51.982;5.878;2022-12-18T02:05:46;-1.10;99.90
39033;DHT22;24794;51.982;5.878;2022-12-18T02:06:46;-1.10;99.90
39033;DHT22;24794;51.982;5.878;2022-12-18T02:08:10;-1.10;99.90
39033;DHT22;24794;51.982;5.878;2022-12-18T02:09:15;-1.00;99.90
39033;DHT22;24794;51.982;5.878;2022-12-18T02:10:40;-1.00;99.90
39033;DHT22;24794;51.982;5.878;2022-12-18T02:11:57;-1.10;99.90
39033;DHT22;24794;51.982;5.878;2022-12-18T02:13:21;-1.10;99.90
39033;DHT22;24794;51.982;5.878;2022-12-18T02:14:38;-1.10;99.90
39033;DHT22;24794;51.982;5.878;2022-12-18T02:18:38;-1.20;99.90
39033;DHT22;24794;51.982;5.878;2022-12-18T02:20:18;-1.20;99.90
39033;DHT22;24794;51.982;5.878;2022-12-18T02:21:52;-1.20;99.90
39033;DHT22;24794;51.982;5.878;2022-12-18T02:24:42;-1.20;99.90
39033;DHT22;24794;51.982;5.878;2022-12-18T02:26:59;-1.20;99.90
39033;DHT22;24794;51.982;5.878;2022-12-18T02:28:04;-1.20;99.90
39033;DHT22;24794;51.982;5.878;2022-12-18T02:29:20;-1.20;99.90
39033;DHT22;24794;51.982;5.878;2022-12-18T02:30:22;-1.30;99.90
39033;DHT22;24794;51.982;5.878;2022-12-18T02:31:28;-1.30;99.90
39033;DHT22;24794;51.982;5.878;2022-12-18T02:32:37;-1.30;99.90
39033;DHT22;24794;51.982;5.878;2022-12-18T02:33:40;-1.30;99.90
39033;DHT22;24794;51.982;5.878;2022-12-18T02:34:43;-1.30;99.90
39033;DHT22;24794;51.982;5.878;2022-12-18T02:35:45;-1.30;99.90
39033;DHT22;24794;51.982;5.878;2022-12-18T02:36:47;-1.30;99.90
39033;DHT22;24794;51.982;5.878;2022-12-18T02:37:49;-1.30;99.90
39033;DHT22;24794;51.982;5.878;2022-12-18T02:38:54;-1.30;99.90
39033;DHT22;24794;51.982;5.878;2022-12-18T02:39:56;-1.30;99.90
39033;DHT22;24794;51.982;5.878;2022-12-18T02:40:59;-1.30;99.90
39033;DHT22;24794;51.982;5.878;2022-12-18T02:42:01;-1.30;99.90
39033;DHT22;24794;51.982;5.878;2022-12-18T02:43:10;-1.40;99.90
39033;DHT22;24794;51.982;5.878;2022-12-18T02:44:13;-1.30;99.90
39033;DHT22;24794;51.982;5.878;2022-12-18T02:45:14;-1.30;99.90
39033;DHT22;24794;51.982;5.878;2022-12-18T02:46:37;-1.40;99.90
39033;DHT22;24794;51.982;5.878;2022-12-18T02:47:42;-1.30;99.90
39033;DHT22;24794;51.982;5.878;2022-12-18T02:48:43;-1.30;99.90
39033;DHT22;24794;51.982;5.878;2022-12-18T02:50:38;-1.30;99.90
39033;DHT22;24794;51.982;5.878;2022-12-18T02:51:37;-1.30;99.90
39033;DHT22;24794;51.982;5.878;2022-12-18T02:54:16;-1.30;99.90
39033;DHT22;24794;51.982;5.878;2022-12-18T02:56:38;-1.30;99.90
39033;DHT22;24794;51.982;5.878;2022-12-18T02:57:54;-1.30;99.90
39033;DHT22;24794;51.982;5.878;2022-12-18T02:59:07;-1.30;99.90
39033;DHT22;24794;51.982;5.878;2022-12-18T03:00:58;-1.30;99.90
39033;DHT22;24794;51.982;5.878;2022-12-18T03:02:41;-1.30;99.90
39033;DHT22;24794;51.982;5.878;2022-12-18T03:03:27;-1.30;99.90
39033;DHT22;24794;51.982;5.878;2022-12-18T03:04:55;-1.30;99.90
39033;DHT22;24794;51.982;5.878;2022-12-18T03:06:18;-1.30;99.90
39033;DHT22;24794;51.982;5.878;2022-12-18T03:07:35;-1.30;99.90
39033;DHT22;24794;51.982;5.878;2022-12-18T03:08:40;-1.30;99.90
39033;DHT22;24794;51.982;5.878;2022-12-18T03:09:44;-1.30;99.90
39033;DHT22;24794;51.982;5.878;2022-12-18T03:11:02;-1.30;99.90
39033;DHT22;24794;51.982;5.878;2022-12-18T03:12:14;-1.30;99.90
39033;DHT22;24794;51.982;5.878;2022-12-18T03:14:34;-1.40;99.90
39033;DHT22;24794;51.982;5.878;2022-12-18T03:15:45;-1.40;99.90
39033;DHT22;24794;51.982;5.878;2022-12-18T03:16:50;-1.40;99.90
39033;DHT22;24794;51.982;5.878;2022-12-18T03:18:01;-1.40;99.90
39033;DHT22;24794;51.982;5.878;2022-12-18T03:19:10;-1.40;99.90
39033;DHT22;24794;51.982;5.878;2022-12-18T03:20:16;-1.40;99.90
39033;DHT22;24794;51.982;5.878;2022-12-18T03:21:21;-1.40;99.90
39033;DHT22;24794;51.982;5.878;2022-12-18T03:22:24;-1.40;99.90
39033;DHT22;24794;51.982;5.878;2022-12-18T03:23:30;-1.40;99.90
39033;DHT22;24794;51.982;5.878;2022-12-18T03:24:33;-1.50;99.90
39033;DHT22;24794;51.982;5.878;2022-12-18T03:25:36;-1.50;99.90
39033;DHT22;24794;51.982;5.878;2022-12-18T03:26:42;-1.50;99.90
39033;DHT22;24794;51.982;5.878;2022-12-18T03:27:50;-1.50;99.90
39033;DHT22;24794;51.982;5.878;2022-12-18T03:29:07;-1.50;99.90
39033;DHT22;24794;51.982;5.878;2022-12-18T03:30:12;-1.50;99.90
39033;DHT22;24794;51.982;5.878;2022-12-18T03:31:14;-1.50;99.90
39033;DHT22;24794;51.982;5.878;2022-12-18T03:32:20;-1.50;99.90
39033;DHT22;24794;51.982;5.878;2022-12-18T03:33:37;-1.50;99.90
39033;DHT22;24794;51.982;5.878;2022-12-18T03:34:40;-1.50;99.90
39033;DHT22;24794;51.982;5.878;2022-12-18T03:35:42;-1.40;99.90
39033;DHT22;24794;51.982;5.878;2022-12-18T03:36:43;-1.50;99.90
39033;DHT22;24794;51.982;5.878;2022-12-18T03:37:44;-1.50;99.90
39033;DHT22;24794;51.982;5.878;2022-12-18T03:38:45;-1.50;99.90
39033;DHT22;24794;51.982;5.878;2022-12-18T03:39:45;-1.50;99.90
39033;DHT22;24794;51.982;5.878;2022-12-18T03:41:07;-1.60;99.90
39033;DHT22;24794;51.982;5.878;2022-12-18T03:42:17;-1.50;99.90
39033;DHT22;24794;51.982;5.878;2022-12-18T03:45:51;-1.50;99.90
39033;DHT22;24794;51.982;5.878;2022-12-18T03:48:14;-1.60;99.90
39033;DHT22;24794;51.982;5.878;2022-12-18T03:50:10;-1.60;99.90
39033;DHT22;24794;51.982;5.878;2022-12-18T03:50:49;-1.60;99.90
39033;DHT22;24794;51.982;5.878;2022-12-18T03:52:04;-1.60;99.90
39033;DHT22;24794;51.982;5.878;2022-12-18T03:54:29;-1.60;99.90
39033;DHT22;24794;51.982;5.878;2022-12-18T03:55:32;-1.70;99.90
39033;DHT22;24794;51.982;5.878;2022-12-18T03:56:48;-1.70;99.90
39033;DHT22;24794;51.982;5.878;2022-12-18T03:57:52;-1.70;99.90
39033;DHT22;24794;51.982;5.878;2022-12-18T03:58:53;-1.70;99.90
39033;DHT22;24794;51.982;5.878;2022-12-18T04:00:00;-1.80;99.90
39033;DHT22;24794;51.982;5.878;2022-12-18T04:01:04;-1.70;99.90
39033;DHT22;24794;51.982;5.878;2022-12-18T04:02:08;-1.80;99.90
39033;DHT22;24794;51.982;5.878;2022-12-18T04:03:10;-1.80;99.90
39033;DHT22;24794;51.982;5.878;2022-12-18T04:04:13;-1.80;99.90
39033;DHT22;24794;51.982;5.878;2022-12-18T04:05:15;-1.80;99.90
39033;DHT22;24794;51.982;5.878;2022-12-18T04:06:17;-1.80;99.90
39033;DHT22;24794;51.982;5.878;2022-12-18T04:07:18;-1.80;99.90
39033;DHT22;24794;51.982;5.878;2022-12-18T04:08:21;-1.80;99.90
39033;DHT22;24794;51.982;5.878;2022-12-18T04:09:22;-1.80;99.90
39033;DHT22;24794;51.982;5.878;2022-12-18T04:10:23;-1.80;99.90
39033;DHT22;24794;51.982;5.878;2022-12-18T04:11:24;-1.80;99.90
39033;DHT22;24794;51.982;5.878;2022-12-18T04:12:25;-1.80;99.90
39033;DHT22;24794;51.982;5.878;2022-12-18T04:13:33;-1.80;99.90
39033;DHT22;24794;51.982;5.878;2022-12-18T04:14:34;-1.80;99.90
39033;DHT22;24794;51.982;5.878;2022-12-18T04:15:36;-1.80;99.90
39033;DHT22;24794;51.982;5.878;2022-12-18T04:16:38;-1.80;99.90
39033;DHT22;24794;51.982;5.878;2022-12-18T04:17:39;-1.90;99.90
39033;DHT22;24794;51.982;5.878;2022-12-18T04:18:43;-1.80;99.90
39033;DHT22;24794;51.982;5.878;2022-12-18T04:19:44;-1.90;99.90
39033;DHT22;24794;51.982;5.878;2022-12-18T04:20:45;-1.90;99.90
39033;DHT22;24794;51.982;5.878;2022-12-18T04:21:45;-1.90;99.90
39033;DHT22;24794;51.982;5.878;2022-12-18T04:22:46;-1.90;99.90
39033;DHT22;24794;51.982;5.878;2022-12-18T04:23:47;-1.90;99.90
39033;DHT22;24794;51.982;5.878;2022-12-18T04:24:47;-1.90;99.90
39033;DHT22;24794;51.982;5.878;2022-12-18T04:25:48;-1.90;99.90
39033;DHT22;24794;51.982;5.878;2022-12-18T04:26:49;-1.80;99.90
39033;DHT22;24794;51.982;5.878;2022-12-18T04:27:49;-1.90;99.90
39033;DHT22;24794;51.982;5.878;2022-12-18T04:28:50;-1.80;99.90
39033;DHT22;24794;51.982;5.878;2022-12-18T04:29:50;-1.80;99.90
39033;DHT22;24794;51.982;5.878;2022-12-18T04:30:51;-1.80;99.90
39033;DHT22;24794;51.982;5.878;2022-12-18T04:31:52;-1.80;99.90
39033;DHT22;24794;51.982;5.878;2022-12-18T04:32:53;-1.80;99.90
39033;DHT22;24794;51.982;5.878;2022-12-18T04:33:53;-1.80;99.90
39033;DHT22;24794;51.982;5.878;2022-12-18T04:34:54;-1.80;99.90
39033;DHT22;24794;51.982;5.878;2022-12-18T04:35:55;-1.80;99.90
39033;DHT22;24794;51.982;5.878;2022-12-18T04:36:55;-1.80;99.90
39033;DHT22;24794;51.982;5.878;2022-12-18T04:37:56;-1.80;99.90
39033;DHT22;24794;51.982;5.878;2022-12-18T04:38:56;-1.80;99.90
39033;DHT22;24794;51.982;5.878;2022-12-18T04:39:57;-1.90;99.90
39033;DHT22;24794;51.982;5.878;2022-12-18T04:40:58;-1.90;99.90
39033;DHT22;24794;51.982;5.878;2022-12-18T04:42:01;-1.80;99.90
39033;DHT22;24794;51.982;5.878;2022-12-18T04:43:02;-1.90;99.90
39033;DHT22;24794;51.982;5.878;2022-12-18T04:44:02;-1.90;99.90
39033;DHT22;24794;51.982;5.878;2022-12-18T04:45:03;-1.90;99.90
39033;DHT22;24794;51.982;5.878;2022-12-18T04:46:06;-1.80;99.90
39033;DHT22;24794;51.982;5.878;2022-12-18T04:47:07;-1.90;99.90
39033;DHT22;24794;51.982;5.878;2022-12-18T04:48:08;-1.90;99.90
39033;DHT22;24794;51.982;5.878;2022-12-18T04:49:08;-1.90;99.90
39033;DHT22;24794;51.982;5.878;2022-12-18T04:50:10;-1.90;99.90
39033;DHT22;24794;51.982;5.878;2022-12-18T04:51:11;-1.90;99.90
39033;DHT22;24794;51.982;5.878;2022-12-18T04:52:12;-1.80;99.90
39033;DHT22;24794;51.982;5.878;2022-12-18T04:53:12;-1.90;99.90
39033;DHT22;24794;51.982;5.878;2022-12-18T04:54:13;-1.80;99.90
39033;DHT22;24794;51.982;5.878;2022-12-18T04:55:13;-1.90;99.90
39033;DHT22;24794;51.982;5.878;2022-12-18T04:56:15;-1.90;99.90
39033;DHT22;24794;51.982;5.878;2022-12-18T04:57:16;-1.90;99.90
39033;DHT22;24794;51.982;5.878;2022-12-18T04:58:18;-1.90;99.90
39033;DHT22;24794;51.982;5.878;2022-12-18T04:59:18;-1.90;99.90
39033;DHT22;24794;51.982;5.878;2022-12-18T05:00:19;-1.90;99.90
39033;DHT22;24794;51.982;5.878;2022-12-18T05:01:20;-1.90;99.90
39033;DHT22;24794;51.982;5.878;2022-12-18T05:02:21;-1.90;99.90
39033;DHT22;24794;51.982;5.878;2022-12-18T05:03:21;-1.90;99.90
39033;DHT22;24794;51.982;5.878;2022-12-18T05:04:22;-1.90;99.90
39033;DHT22;24794;51.982;5.878;2022-12-18T05:05:22;-1.80;99.90
39033;DHT22;24794;51.982;5.878;2022-12-18T05:06:23;-1.80;99.90
39033;DHT22;24794;51.982;5.878;2022-12-18T05:07:23;-1.80;99.90
39033;DHT22;24794;51.982;5.878;2022-12-18T05:08:24;-1.80;99.90
39033;DHT22;24794;51.982;5.878;2022-12-18T05:09:25;-1.80;99.90
39033;DHT22;24794;51.982;5.878;2022-12-18T05:10:25;-1.80;99.90
39033;DHT22;24794;51.982;5.878;2022-12-18T05:11:26;-1.70;99.90
39033;DHT22;24794;51.982;5.878;2022-12-18T05:12:26;-1.70;99.90
39033;DHT22;24794;51.982;5.878;2022-12-18T05:13:28;-1.70;99.90
39033;DHT22;24794;51.982;5.878;2022-12-18T05:14:28;-1.70;99.90
39033;DHT22;24794;51.982;5.878;2022-12-18T05:15:30;-1.70;99.90
39033;DHT22;24794;51.982;5.878;2022-12-18T05:16:31;-1.70;99.90
39033;DHT22;24794;51.982;5.878;2022-12-18T05:17:31;-1.70;99.90
39033;DHT22;24794;51.982;5.878;2022-12-18T05:18:32;-1.70;99.90
39033;DHT22;24794;51.982;5.878;2022-12-18T05:19:33;-1.70;99.90
39033;DHT22;24794;51.982;5.878;2022-12-18T05:20:33;-1.60;99.90
39033;DHT22;24794;51.982;5.878;2022-12-18T05:21:34;-1.60;99.90
39033;DHT22;24794;51.982;5.878;2022-12-18T05:22:35;-1.60;99.90
39033;DHT22;24794;51.982;5.878;2022-12-18T05:23:35;-1.60;99.90
39033;DHT22;24794;51.982;5.878;2022-12-18T05:24:36;-1.60;99.90
39033;DHT22;24794;51.982;5.878;2022-12-18T05:25:37;-1.60;99.90
39033;DHT22;24794;51.982;5.878;2022-12-18T05:26:37;-1.60;99.90
39033;DHT22;24794;51.982;5.878;2022-12-18T05:27:38;-1.60;99.90
39033;DHT22;24794;51.982;5.878;2022-12-18T05:28:38;-1.60;99.90
39033;DHT22;24794;51.982;5.878;2022-12-18T05:29:39;-1.60;99.90
39033;DHT22;24794;51.982;5.878;2022-12-18T05:30:42;-1.60;99.90
39033;DHT22;24794;51.982;5.878;2022-12-18T05:31:45;-1.60;99.90
39033;DHT22;24794;51.982;5.878;2022-12-18T05:32:45;-1.60;99.90
39033;DHT22;24794;51.982;5.878;2022-12-18T05:33:46;-1.60;99.90
39033;DHT22;24794;51.982;5.878;2022-12-18T05:34:49;-1.60;99.90
39033;DHT22;24794;51.982;5.878;2022-12-18T05:35:51;-1.60;99.90
39033;DHT22;24794;51.982;5.878;2022-12-18T05:36:52;-1.60;99.90
39033;DHT22;24794;51.982;5.878;2022-12-18T05:37:52;-1.60;99.90
39033;DHT22;24794;51.982;5.878;2022-12-18T05:38:53;-1.60;99.90
39033;DHT22;24794;51.982;5.878;2022-12-18T05:39:53;-1.60;99.90
39033;DHT22;24794;51.982;5.878;2022-12-18T05:40:55;-1.60;99.90
39033;DHT22;24794;51.982;5.878;2022-12-18T05:41:56;-1.60;99.90
39033;DHT22;24794;51.982;5.878;2022-12-18T05:42:56;-1.60;99.90
39033;DHT22;24794;51.982;5.878;2022-12-18T05:43:58;-1.60;99.90
39033;DHT22;24794;51.982;5.878;2022-12-18T05:44:59;-1.60;99.90
39033;DHT22;24794;51.982;5.878;2022-12-18T05:46:04;-1.60;99.90
39033;DHT22;24794;51.982;5.878;2022-12-18T05:47:04;-1.60;99.90
39033;DHT22;24794;51.982;5.878;2022-12-18T05:48:06;-1.60;99.90
39033;DHT22;24794;51.982;5.878;2022-12-18T05:49:07;-1.60;99.90
39033;DHT22;24794;51.982;5.878;2022-12-18T05:50:07;-1.60;99.90
39033;DHT22;24794;51.982;5.878;2022-12-18T05:51:14;-1.60;99.90
39033;DHT22;24794;51.982;5.878;2022-12-18T05:52:15;-1.60;99.90
39033;DHT22;24794;51.982;5.878;2022-12-18T05:53:18;-1.60;99.90
39033;DHT22;24794;51.982;5.878;2022-12-18T05:54:19;-1.60;99.90
39033;DHT22;24794;51.982;5.878;2022-12-18T05:55:20;-1.70;99.90
39033;DHT22;24794;51.982;5.878;2022-12-18T05:56:22;-1.60;99.90
39033;DHT22;24794;51.982;5.878;2022-12-18T05:57:23;-1.60;99.90
39033;DHT22;24794;51.982;5.878;2022-12-18T05:58:23;-1.70;99.90
39033;DHT22;24794;51.982;5.878;2022-12-18T05:59:24;-1.70;99.90
39033;DHT22;24794;51.982;5.878;2022-12-18T06:00:24;-1.70;99.90
39033;DHT22;24794;51.982;5.878;2022-12-18T06:01:26;-1.70;99.90
39033;DHT22;24794;51.982;5.878;2022-12-18T06:02:27;-1.70;99.90
39033;DHT22;24794;51.982;5.878;2022-12-18T06:03:27;-1.70;99.90
39033;DHT22;24794;51.982;5.878;2022-12-18T06:04:28;-1.80;99.90
39033;DHT22;24794;51.982;5.878;2022-12-18T06:05:35;-1.80;99.90
39033;DHT22;24794;51.982;5.878;2022-12-18T06:06:37;-1.80;99.90
39033;DHT22;24794;51.982;5.878;2022-12-18T06:07:38;-1.80;99.90
39033;DHT22;24794;51.982;5.878;2022-12-18T06:08:38;-1.80;99.90
39033;DHT22;24794;51.982;5.878;2022-12-18T06:09:39;-1.80;99.90
39033;DHT22;24794;51.982;5.878;2022-12-18T06:10:41;-1.80;99.90
39033;DHT22;24794;51.982;5.878;2022-12-18T06:11:42;-1.90;99.90
39033;DHT22;24794;51.982;5.878;2022-12-18T06:12:42;-1.90;99.90
39033;DHT22;24794;51.982;5.878;2022-12-18T06:13:43;-1.90;99.90
39033;DHT22;24794;51.982;5.878;2022-12-18T06:14:43;-1.90;99.90
39033;DHT22;24794;51.982;5.878;2022-12-18T06:15:44;-1.90;99.90
39033;DHT22;24794;51.982;5.878;2022-12-18T06:16:45;-1.90;99.90
39033;DHT22;24794;51.982;5.878;2022-12-18T06:17:45;-1.90;99.90
39033;DHT22;24794;51.982;5.878;2022-12-18T06:18:46;-1.90;99.90
39033;DHT22;24794;51.982;5.878;2022-12-18T06:19:46;-1.90;99.90
39033;DHT22;24794;51.982;5.878;2022-12-18T06:20:57;-1.90;99.90
39033;DHT22;24794;51.982;5.878;2022-12-18T06:21:58;-1.90;99.90
39033;DHT22;24794;51.982;5.878;2022-12-18T06:22:59;-1.90;99.90
39033;DHT22;24794;51.982;5.878;2022-12-18T06:24:00;-1.90;99.90
39033;DHT22;24794;51.982;5.878;2022-12-18T06:25:01;-1.90;99.90
39033;DHT22;24794;51.982;5.878;2022-12-18T06:26:09;-1.90;99.90
39033;DHT22;24794;51.982;5.878;2022-12-18T06:27:10;-1.90;99.90
39033;DHT22;24794;51.982;5.878;2022-12-18T06:28:10;-1.90;99.90
39033;DHT22;24794;51.982;5.878;2022-12-18T06:29:11;-1.90;99.90
39033;DHT22;24794;51.982;5.878;2022-12-18T06:30:12;-1.90;99.90
39033;DHT22;24794;51.982;5.878;2022-12-18T06:31:13;-1.90;99.90
39033;DHT22;24794;51.982;5.878;2022-12-18T06:32:13;-1.90;99.90
39033;DHT22;24794;51.982;5.878;2022-12-18T06:33:15;-1.90;99.90
39033;DHT22;24794;51.982;5.878;2022-12-18T06:34:16;-1.90;99.90
39033;DHT22;24794;51.982;5.878;2022-12-18T06:35:17;-1.80;99.90
39033;DHT22;24794;51.982;5.878;2022-12-18T06:36:17;-1.90;99.90
39033;DHT22;24794;51.982;5.878;2022-12-18T06:37:18;-1.80;99.90
39033;DHT22;24794;51.982;5.878;2022-12-18T06:38:18;-1.80;99.90
39033;DHT22;24794;51.982;5.878;2022-12-18T06:39:19;-1.90;99.90
39033;DHT22;24794;51.982;5.878;2022-12-18T06:40:20;-1.80;99.90
39033;DHT22;24794;51.982;5.878;2022-12-18T06:41:21;-1.70;99.90
39033;DHT22;24794;51.982;5.878;2022-12-18T06:42:22;-1.80;99.90
39033;DHT22;24794;51.982;5.878;2022-12-18T06:43:23;-1.80;99.90
39033;DHT22;24794;51.982;5.878;2022-12-18T06:44:24;-1.80;99.90
39033;DHT22;24794;51.982;5.878;2022-12-18T06:45:24;-1.80;99.90
39033;DHT22;24794;51.982;5.878;2022-12-18T06:46:25;-1.80;99.90
39033;DHT22;24794;51.982;5.878;2022-12-18T06:47:26;-1.80;99.90
39033;DHT22;24794;51.982;5.878;2022-12-18T06:48:27;-1.80;99.90
39033;DHT22;24794;51.982;5.878;2022-12-18T06:49:27;-1.80;99.90
39033;DHT22;24794;51.982;5.878;2022-12-18T06:50:28;-1.80;99.90
39033;DHT22;24794;51.982;5.878;2022-12-18T06:51:29;-1.80;99.90
39033;DHT22;24794;51.982;5.878;2022-12-18T06:52:31;-1.80;99.90
39033;DHT22;24794;51.982;5.878;2022-12-18T06:53:33;-1.70;99.90
39033;DHT22;24794;51.982;5.878;2022-12-18T06:54:33;-1.80;99.90
39033;DHT22;24794;51.982;5.878;2022-12-18T06:55:34;-1.70;99.90
39033;DHT22;24794;51.982;5.878;2022-12-18T06:56:34;-1.70;99.90
39033;DHT22;24794;51.982;5.878;2022-12-18T06:57:35;-1.70;99.90
39033;DHT22;24794;51.982;5.878;2022-12-18T06:58:37;-1.80;99.90
39033;DHT22;24794;51.982;5.878;2022-12-18T06:59:37;-1.70;99.90